sensor_id;sensor_type;location;lat;lon;timestamp;P1;durP1;ratioP1;P2;durP2;ratioP2
46845;SDS011;33947;46.804;134.252;2023-12-07T00:01:01;44.88;;;20.42;;
46845;SDS011;33947;46.804;134.252;2023-12-07T00:05:01;24.60;;;10.23;;
46845;SDS011;33947;46.804;134.252;2023-12-07T00:08:11;50.70;;;15.93;;
46845;SDS011;33947;46.804;134.252;2023-12-07T00:11:25;46.40;;;17.33;;
46845;SDS011;33947;46.804;134.252;2023-12-07T00:14:33;41.47;;;14.93;;
46845;SDS011;33947;46.804;134.252;2023-12-07T00:18:40;10.85;;;5.43;;
46845;SDS011;33947;46.804;134.252;2023-12-07T00:21:52;14.15;;;4.20;;
46845;SDS011;33947;46.804;134.252;2023-12-07T00:25:28;8.98;;;4.32;;
46845;SDS011;33947;46.804;134.252;2023-12-07T00:28:34;7.97;;;4.78;;
46845;SDS011;33947;46.804;134.252;2023-12-07T00:31:42;18.80;;;7.78;;
46845;SDS011;33947;46.804;134.252;2023-12-07T00:35:07;15.65;;;7.63;;
46845;SDS011;33947;46.804;134.252;2023-12-07T00:38:20;14.55;;;7.35;;
46845;SDS011;33947;46.804;134.252;2023-12-07T00:41:29;18.25;;;6.70;;
46845;SDS011;33947;46.804;134.252;2023-12-07T00:44:39;20.77;;;9.70;;
46845;SDS011;33947;46.804;134.252;2023-12-07T00:47:47;13.13;;;6.30;;
46845;SDS011;33947;46.804;134.252;2023-12-07T00:50:54;22.13;;;6.72;;
46845;SDS011;33947;46.804;134.252;2023-12-07T00:53:59;20.90;;;10.05;;
46845;SDS011;33947;46.804;134.252;2023-12-07T00:57:13;26.20;;;12.40;;
46845;SDS011;33947;46.804;134.252;2023-12-07T01:00:18;26.83;;;11.90;;
46845;SDS011;33947;46.804;134.252;2023-12-07T01:03:36;30.98;;;10.25;;
46845;SDS011;33947;46.804;134.252;2023-12-07T01:06:49;18.27;;;8.20;;
46845;SDS011;33947;46.804;134.252;2023-12-07T01:09:58;38.60;;;16.83;;
46845;SDS011;33947;46.804;134.252;2023-12-07T01:13:11;21.08;;;9.75;;
46845;SDS011;33947;46.804;134.252;2023-12-07T01:16:25;19.45;;;9.43;;
46845;SDS011;33947;46.804;134.252;2023-12-07T01:20:38;11.00;;;3.70;;
46845;SDS011;33947;46.804;134.252;2023-12-07T01:24:50;10.13;;;4.75;;
46845;SDS011;33947;46.804;134.252;2023-12-07T01:29:25;11.93;;;5.93;;
46845;SDS011;33947;46.804;134.252;2023-12-07T01:33:37;13.75;;;6.47;;
46845;SDS011;33947;46.804;134.252;2023-12-07T01:38:03;15.98;;;7.65;;
46845;SDS011;33947;46.804;134.252;2023-12-07T01:41:55;14.60;;;6.65;;
46845;SDS011;33947;46.804;134.252;2023-12-07T01:45:53;12.35;;;4.18;;
46845;SDS011;33947;46.804;134.252;2023-12-07T01:49:57;10.20;;;5.33;;
46845;SDS011;33947;46.804;134.252;2023-12-07T01:58:46;16.67;;;7.50;;
46845;SDS011;33947;46.804;134.252;2023-12-07T02:03:03;27.65;;;11.00;;
46845;SDS011;33947;46.804;134.252;2023-12-07T02:06:41;10.07;;;4.25;;
46845;SDS011;33947;46.804;134.252;2023-12-07T02:10:57;28.88;;;10.57;;
46845;SDS011;33947;46.804;134.252;2023-12-07T02:15:26;10.88;;;5.40;;
46845;SDS011;33947;46.804;134.252;2023-12-07T02:24:33;13.63;;;4.00;;
46845;SDS011;33947;46.804;134.252;2023-12-07T02:28:41;12.70;;;4.30;;
46845;SDS011;33947;46.804;134.252;2023-12-07T02:31:53;11.40;;;4.85;;
46845;SDS011;33947;46.804;134.252;2023-12-07T02:35:04;11.68;;;4.50;;
46845;SDS011;33947;46.804;134.252;2023-12-07T02:38:15;12.02;;;5.40;;
46845;SDS011;33947;46.804;134.252;2023-12-07T02:41:25;10.63;;;4.15;;
46845;SDS011;33947;46.804;134.252;2023-12-07T02:44:35;56.25;;;24.90;;
46845;SDS011;33947;46.804;134.252;2023-12-07T02:47:45;9.18;;;4.40;;
46845;SDS011;33947;46.804;134.252;2023-12-07T02:50:51;13.82;;;6.35;;
46845;SDS011;33947;46.804;134.252;2023-12-07T02:54:35;13.27;;;4.35;;
46845;SDS011;33947;46.804;134.252;2023-12-07T02:58:01;93.20;;;46.42;;
46845;SDS011;33947;46.804;134.252;2023-12-07T03:01:38;19.45;;;10.68;;
46845;SDS011;33947;46.804;134.252;2023-12-07T03:10:47;52.40;;;13.30;;
46845;SDS011;33947;46.804;134.252;2023-12-07T03:14:15;17.70;;;6.22;;
46845;SDS011;33947;46.804;134.252;2023-12-07T03:17:23;11.52;;;4.30;;
46845;SDS011;33947;46.804;134.252;2023-12-07T03:26:10;18.63;;;8.27;;
46845;SDS011;33947;46.804;134.252;2023-12-07T03:40:59;51.10;;;15.20;;
46845;SDS011;33947;46.804;134.252;2023-12-07T03:50:28;14.45;;;5.93;;
46845;SDS011;33947;46.804;134.252;2023-12-07T03:59:40;13.85;;;4.80;;
46845;SDS011;33947;46.804;134.252;2023-12-07T04:08:57;8.73;;;3.65;;
46845;SDS011;33947;46.804;134.252;2023-12-07T04:21:34;10.40;;;4.88;;
46845;SDS011;33947;46.804;134.252;2023-12-07T04:29:53;19.65;;;6.82;;
46845;SDS011;33947;46.804;134.252;2023-12-07T04:33:25;10.52;;;5.25;;
46845;SDS011;33947;46.804;134.252;2023-12-07T04:36:46;8.35;;;4.10;;
46845;SDS011;33947;46.804;134.252;2023-12-07T04:45:15;10.35;;;4.93;;
46845;SDS011;33947;46.804;134.252;2023-12-07T04:48:21;81.15;;;25.25;;
46845;SDS011;33947;46.804;134.252;2023-12-07T04:51:50;21.08;;;8.38;;
46845;SDS011;33947;46.804;134.252;2023-12-07T04:55:26;26.38;;;9.18;;
46845;SDS011;33947;46.804;134.252;2023-12-07T04:59:26;10.75;;;4.65;;
46845;SDS011;33947;46.804;134.252;2023-12-07T05:07:36;109.30;;;39.15;;
46845;SDS011;33947;46.804;134.252;2023-12-07T05:11:42;720.28;;;262.25;;
46845;SDS011;33947;46.804;134.252;2023-12-07T05:15:37;351.15;;;137.32;;
46845;SDS011;33947;46.804;134.252;2023-12-07T05:19:40;14.70;;;8.73;;
46845;SDS011;33947;46.804;134.252;2023-12-07T05:23:15;16.77;;;6.75;;
46845;SDS011;33947;46.804;134.252;2023-12-07T05:26:50;18.65;;;8.75;;
46845;SDS011;33947;46.804;134.252;2023-12-07T05:30:19;12.02;;;6.80;;
46845;SDS011;33947;46.804;134.252;2023-12-07T05:34:35;16.17;;;6.53;;
46845;SDS011;33947;46.804;134.252;2023-12-07T05:43:40;13.82;;;6.53;;
46845;SDS011;33947;46.804;134.252;2023-12-07T05:57:18;208.25;;;66.28;;
46845;SDS011;33947;46.804;134.252;2023-12-07T06:01:55;115.05;;;47.75;;
46845;SDS011;33947;46.804;134.252;2023-12-07T06:06:09;57.08;;;32.85;;
46845;SDS011;33947;46.804;134.252;2023-12-07T06:10:26;21.38;;;12.68;;
46845;SDS011;33947;46.804;134.252;2023-12-07T06:19:04;16.67;;;8.73;;
46845;SDS011;33947;46.804;134.252;2023-12-07T06:23:20;111.68;;;40.65;;
46845;SDS011;33947;46.804;134.252;2023-12-07T06:27:31;36.90;;;19.00;;
46845;SDS011;33947;46.804;134.252;2023-12-07T06:31:11;51.53;;;26.23;;
46845;SDS011;33947;46.804;134.252;2023-12-07T06:35:07;16.70;;;8.73;;
46845;SDS011;33947;46.804;134.252;2023-12-07T07:53:54;19.25;;;7.63;;
46845;SDS011;33947;46.804;134.252;2023-12-07T07:57:38;34.42;;;16.50;;
46845;SDS011;33947;46.804;134.252;2023-12-07T08:00:54;42.45;;;15.43;;
46845;SDS011;33947;46.804;134.252;2023-12-07T08:04:22;78.05;;;27.45;;
46845;SDS011;33947;46.804;134.252;2023-12-07T08:08:06;68.85;;;24.27;;
46845;SDS011;33947;46.804;134.252;2023-12-07T08:12:02;43.92;;;16.63;;
46845;SDS011;33947;46.804;134.252;2023-12-07T08:15:33;41.17;;;17.20;;
46845;SDS011;33947;46.804;134.252;2023-12-07T08:19:23;45.28;;;16.70;;
46845;SDS011;33947;46.804;134.252;2023-12-07T08:23:05;65.63;;;22.63;;
46845;SDS011;33947;46.804;134.252;2023-12-07T08:27:03;70.25;;;21.10;;
46845;SDS011;33947;46.804;134.252;2023-12-07T08:35:45;28.38;;;12.90;;
46845;SDS011;33947;46.804;134.252;2023-12-07T08:45:01;25.30;;;11.27;;
46845;SDS011;33947;46.804;134.252;2023-12-07T08:48:07;23.08;;;11.73;;
46845;SDS011;33947;46.804;134.252;2023-12-07T08:51:25;21.75;;;11.55;;
46845;SDS011;33947;46.804;134.252;2023-12-07T08:55:22;22.95;;;12.10;;
46845;SDS011;33947;46.804;134.252;2023-12-07T08:59:13;29.38;;;15.40;;
46845;SDS011;33947;46.804;134.252;2023-12-07T09:03:39;28.13;;;14.15;;
46845;SDS011;33947;46.804;134.252;2023-12-07T09:08:00;31.80;;;13.45;;
46845;SDS011;33947;46.804;134.252;2023-12-07T09:11:57;29.48;;;13.85;;
46845;SDS011;33947;46.804;134.252;2023-12-07T09:15:58;50.78;;;24.10;;
46845;SDS011;33947;46.804;134.252;2023-12-07T09:19:13;311.65;;;93.43;;
46845;SDS011;33947;46.804;134.252;2023-12-07T09:23:18;438.60;;;140.35;;
46845;SDS011;33947;46.804;134.252;2023-12-07T09:26:25;337.30;;;105.20;;
46845;SDS011;33947;46.804;134.252;2023-12-07T09:29:36;269.48;;;84.88;;
46845;SDS011;33947;46.804;134.252;2023-12-07T09:32:48;278.95;;;85.85;;
46845;SDS011;33947;46.804;134.252;2023-12-07T09:36:01;210.63;;;67.63;;
46845;SDS011;33947;46.804;134.252;2023-12-07T09:39:16;232.10;;;71.37;;
46845;SDS011;33947;46.804;134.252;2023-12-07T09:42:51;187.05;;;57.90;;
46845;SDS011;33947;46.804;134.252;2023-12-07T09:46:31;137.55;;;44.83;;
46845;SDS011;33947;46.804;134.252;2023-12-07T09:53:20;124.53;;;42.83;;
46845;SDS011;33947;46.804;134.252;2023-12-07T09:56:37;141.38;;;43.08;;
46845;SDS011;33947;46.804;134.252;2023-12-07T09:59:45;205.40;;;57.85;;
46845;SDS011;33947;46.804;134.252;2023-12-07T10:03:00;207.15;;;68.43;;
46845;SDS011;33947;46.804;134.252;2023-12-07T10:06:06;222.55;;;68.22;;
46845;SDS011;33947;46.804;134.252;2023-12-07T10:09:13;197.63;;;69.18;;
46845;SDS011;33947;46.804;134.252;2023-12-07T10:12:26;223.95;;;75.47;;
46845;SDS011;33947;46.804;134.252;2023-12-07T10:15:31;211.68;;;74.88;;
46845;SDS011;33947;46.804;134.252;2023-12-07T10:18:36;201.55;;;71.28;;
46845;SDS011;33947;46.804;134.252;2023-12-07T10:21:46;194.23;;;70.18;;
46845;SDS011;33947;46.804;134.252;2023-12-07T10:24:52;175.55;;;60.85;;
46845;SDS011;33947;46.804;134.252;2023-12-07T10:28:01;161.30;;;58.00;;
46845;SDS011;33947;46.804;134.252;2023-12-07T10:31:11;178.50;;;62.42;;
46845;SDS011;33947;46.804;134.252;2023-12-07T10:34:19;179.07;;;61.63;;
46845;SDS011;33947;46.804;134.252;2023-12-07T10:37:25;182.38;;;58.20;;
46845;SDS011;33947;46.804;134.252;2023-12-07T10:40:33;161.23;;;58.05;;
46845;SDS011;33947;46.804;134.252;2023-12-07T10:43:41;143.55;;;52.17;;
46845;SDS011;33947;46.804;134.252;2023-12-07T10:46:54;149.02;;;53.10;;
46845;SDS011;33947;46.804;134.252;2023-12-07T10:50:00;168.02;;;51.92;;
46845;SDS011;33947;46.804;134.252;2023-12-07T10:53:09;149.60;;;52.00;;
46845;SDS011;33947;46.804;134.252;2023-12-07T10:56:29;147.43;;;49.03;;
46845;SDS011;33947;46.804;134.252;2023-12-07T10:59:41;244.13;;;78.57;;
46845;SDS011;33947;46.804;134.252;2023-12-07T11:02:49;207.27;;;64.03;;
46845;SDS011;33947;46.804;134.252;2023-12-07T11:06:01;164.98;;;58.03;;
46845;SDS011;33947;46.804;134.252;2023-12-07T11:09:09;212.98;;;59.75;;
46845;SDS011;33947;46.804;134.252;2023-12-07T11:12:35;220.82;;;66.07;;
46845;SDS011;33947;46.804;134.252;2023-12-07T11:15:52;281.63;;;83.07;;
46845;SDS011;33947;46.804;134.252;2023-12-07T11:19:00;250.98;;;70.43;;
46845;SDS011;33947;46.804;134.252;2023-12-07T11:22:07;220.73;;;64.93;;
46845;SDS011;33947;46.804;134.252;2023-12-07T11:25:19;254.85;;;76.75;;
46845;SDS011;33947;46.804;134.252;2023-12-07T11:28:35;238.63;;;68.10;;
46845;SDS011;33947;46.804;134.252;2023-12-07T11:32:00;179.10;;;52.42;;
46845;SDS011;33947;46.804;134.252;2023-12-07T11:35:33;185.82;;;55.10;;
46845;SDS011;33947;46.804;134.252;2023-12-07T11:42:43;159.25;;;50.83;;
46845;SDS011;33947;46.804;134.252;2023-12-07T11:46:23;134.10;;;44.83;;
46845;SDS011;33947;46.804;134.252;2023-12-07T11:50:02;197.65;;;61.15;;
46845;SDS011;33947;46.804;134.252;2023-12-07T11:53:13;187.70;;;56.33;;
46845;SDS011;33947;46.804;134.252;2023-12-07T11:57:01;234.95;;;67.03;;
46845;SDS011;33947;46.804;134.252;2023-12-07T12:00:27;281.10;;;84.03;;
46845;SDS011;33947;46.804;134.252;2023-12-07T12:03:49;252.20;;;79.68;;
46845;SDS011;33947;46.804;134.252;2023-12-07T12:06:57;209.57;;;66.50;;
46845;SDS011;33947;46.804;134.252;2023-12-07T12:10:27;203.70;;;62.05;;
46845;SDS011;33947;46.804;134.252;2023-12-07T12:13:38;223.48;;;70.20;;
46845;SDS011;33947;46.804;134.252;2023-12-07T12:16:49;214.13;;;63.55;;
46845;SDS011;33947;46.804;134.252;2023-12-07T12:19:57;231.20;;;68.35;;
46845;SDS011;33947;46.804;134.252;2023-12-07T12:23:03;218.65;;;68.10;;
46845;SDS011;33947;46.804;134.252;2023-12-07T12:26:15;208.57;;;63.83;;
46845;SDS011;33947;46.804;134.252;2023-12-07T12:29:34;290.50;;;81.22;;
46845;SDS011;33947;46.804;134.252;2023-12-07T12:32:44;389.83;;;110.93;;
46845;SDS011;33947;46.804;134.252;2023-12-07T12:36:09;293.38;;;85.75;;
46845;SDS011;33947;46.804;134.252;2023-12-07T12:39:39;255.40;;;75.25;;
46845;SDS011;33947;46.804;134.252;2023-12-07T12:42:58;241.13;;;71.72;;
46845;SDS011;33947;46.804;134.252;2023-12-07T12:46:18;188.38;;;55.90;;
46845;SDS011;33947;46.804;134.252;2023-12-07T12:49:43;141.75;;;41.40;;
46845;SDS011;33947;46.804;134.252;2023-12-07T12:53:01;41.70;;;16.05;;
46845;SDS011;33947;46.804;134.252;2023-12-07T12:56:12;79.40;;;28.80;;
46845;SDS011;33947;46.804;134.252;2023-12-07T12:59:35;86.30;;;29.52;;
46845;SDS011;33947;46.804;134.252;2023-12-07T13:02:56;78.72;;;26.92;;
46845;SDS011;33947;46.804;134.252;2023-12-07T13:06:47;60.65;;;21.17;;
46845;SDS011;33947;46.804;134.252;2023-12-07T13:10:47;11.40;;;6.03;;
46845;SDS011;33947;46.804;134.252;2023-12-07T13:15:11;9.15;;;4.22;;
46845;SDS011;33947;46.804;134.252;2023-12-07T13:18:44;7.93;;;3.70;;
46845;SDS011;33947;46.804;134.252;2023-12-07T13:21:49;20.95;;;7.07;;
46845;SDS011;33947;46.804;134.252;2023-12-07T13:24:54;18.73;;;6.57;;
46845;SDS011;33947;46.804;134.252;2023-12-07T13:31:04;17.02;;;7.32;;
46845;SDS011;33947;46.804;134.252;2023-12-07T13:34:09;15.02;;;8.18;;
46845;SDS011;33947;46.804;134.252;2023-12-07T13:37:25;15.98;;;8.15;;
46845;SDS011;33947;46.804;134.252;2023-12-07T13:40:32;22.02;;;7.85;;
46845;SDS011;33947;46.804;134.252;2023-12-07T13:43:39;15.85;;;6.05;;
46845;SDS011;33947;46.804;134.252;2023-12-07T13:46:46;11.25;;;4.18;;
46845;SDS011;33947;46.804;134.252;2023-12-07T13:49:52;20.75;;;9.25;;
46845;SDS011;33947;46.804;134.252;2023-12-07T13:52:57;34.03;;;13.20;;
46845;SDS011;33947;46.804;134.252;2023-12-07T13:56:08;57.78;;;17.42;;
46845;SDS011;33947;46.804;134.252;2023-12-07T13:59:16;115.13;;;32.35;;
46845;SDS011;33947;46.804;134.252;2023-12-07T14:02:24;181.55;;;47.10;;
46845;SDS011;33947;46.804;134.252;2023-12-07T14:05:31;100.13;;;29.58;;
46845;SDS011;33947;46.804;134.252;2023-12-07T14:08:36;93.47;;;29.02;;
46845;SDS011;33947;46.804;134.252;2023-12-07T14:11:48;107.18;;;32.28;;
46845;SDS011;33947;46.804;134.252;2023-12-07T14:14:55;184.68;;;50.53;;
46845;SDS011;33947;46.804;134.252;2023-12-07T14:18:01;142.43;;;42.63;;
46845;SDS011;33947;46.804;134.252;2023-12-07T14:21:06;133.00;;;43.67;;
46845;SDS011;33947;46.804;134.252;2023-12-07T14:24:32;115.53;;;38.83;;
46845;SDS011;33947;46.804;134.252;2023-12-07T14:28:20;111.53;;;38.35;;
46845;SDS011;33947;46.804;134.252;2023-12-07T14:36:28;89.40;;;27.13;;
46845;SDS011;33947;46.804;134.252;2023-12-07T14:40:49;74.75;;;24.83;;
46845;SDS011;33947;46.804;134.252;2023-12-07T14:43:57;80.30;;;29.85;;
46845;SDS011;33947;46.804;134.252;2023-12-07T14:47:03;91.45;;;27.48;;
46845;SDS011;33947;46.804;134.252;2023-12-07T14:50:10;81.88;;;29.50;;
46845;SDS011;33947;46.804;134.252;2023-12-07T14:53:18;124.32;;;34.60;;
46845;SDS011;33947;46.804;134.252;2023-12-07T14:56:27;103.10;;;27.55;;
46845;SDS011;33947;46.804;134.252;2023-12-07T15:02:37;65.60;;;26.40;;
46845;SDS011;33947;46.804;134.252;2023-12-07T15:05:42;75.85;;;25.08;;
46845;SDS011;33947;46.804;134.252;2023-12-07T15:08:50;74.85;;;23.38;;
46845;SDS011;33947;46.804;134.252;2023-12-07T15:11:59;37.45;;;11.80;;
46845;SDS011;33947;46.804;134.252;2023-12-07T15:15:07;30.20;;;13.30;;
46845;SDS011;33947;46.804;134.252;2023-12-07T15:18:15;41.60;;;14.82;;
46845;SDS011;33947;46.804;134.252;2023-12-07T15:21:21;39.22;;;16.38;;
46845;SDS011;33947;46.804;134.252;2023-12-07T15:24:27;64.82;;;21.05;;
46845;SDS011;33947;46.804;134.252;2023-12-07T15:27:41;52.72;;;19.52;;
46845;SDS011;33947;46.804;134.252;2023-12-07T15:31:23;64.57;;;22.45;;
46845;SDS011;33947;46.804;134.252;2023-12-07T15:34:32;90.57;;;29.85;;
46845;SDS011;33947;46.804;134.252;2023-12-07T15:37:43;110.47;;;30.92;;
46845;SDS011;33947;46.804;134.252;2023-12-07T15:40:50;102.30;;;30.88;;
46845;SDS011;33947;46.804;134.252;2023-12-07T15:44:00;85.40;;;22.50;;
46845;SDS011;33947;46.804;134.252;2023-12-07T15:47:06;79.00;;;23.90;;
46845;SDS011;33947;46.804;134.252;2023-12-07T15:50:16;49.22;;;18.42;;
46845;SDS011;33947;46.804;134.252;2023-12-07T15:53:23;60.70;;;21.00;;
46845;SDS011;33947;46.804;134.252;2023-12-07T15:59:34;60.03;;;18.73;;
46845;SDS011;33947;46.804;134.252;2023-12-07T16:02:44;41.00;;;15.95;;
46845;SDS011;33947;46.804;134.252;2023-12-07T16:05:48;73.68;;;23.88;;
46845;SDS011;33947;46.804;134.252;2023-12-07T16:08:56;107.70;;;34.20;;
46845;SDS011;33947;46.804;134.252;2023-12-07T16:12:01;121.22;;;30.40;;
46845;SDS011;33947;46.804;134.252;2023-12-07T16:15:07;66.32;;;23.90;;
46845;SDS011;33947;46.804;134.252;2023-12-07T16:18:12;82.28;;;29.35;;
46845;SDS011;33947;46.804;134.252;2023-12-07T16:21:17;52.25;;;18.45;;
46845;SDS011;33947;46.804;134.252;2023-12-07T16:24:24;25.27;;;10.32;;
46845;SDS011;33947;46.804;134.252;2023-12-07T16:27:34;30.75;;;10.85;;
46845;SDS011;33947;46.804;134.252;2023-12-07T16:30:42;38.50;;;17.60;;
46845;SDS011;33947;46.804;134.252;2023-12-07T16:33:51;35.60;;;14.80;;
46845;SDS011;33947;46.804;134.252;2023-12-07T16:37:01;28.33;;;12.18;;
46845;SDS011;33947;46.804;134.252;2023-12-07T16:40:07;47.72;;;17.27;;
46845;SDS011;33947;46.804;134.252;2023-12-07T16:43:13;37.67;;;14.40;;
46845;SDS011;33947;46.804;134.252;2023-12-07T16:46:19;64.10;;;22.08;;
46845;SDS011;33947;46.804;134.252;2023-12-07T16:49:25;64.53;;;19.48;;
46845;SDS011;33947;46.804;134.252;2023-12-07T16:52:31;70.75;;;25.98;;
46845;SDS011;33947;46.804;134.252;2023-12-07T16:55:39;53.65;;;19.35;;
46845;SDS011;33947;46.804;134.252;2023-12-07T16:58:44;46.83;;;17.15;;
46845;SDS011;33947;46.804;134.252;2023-12-07T17:01:49;47.65;;;15.93;;
46845;SDS011;33947;46.804;134.252;2023-12-07T17:04:55;31.73;;;13.80;;
46845;SDS011;33947;46.804;134.252;2023-12-07T17:08:01;33.17;;;11.50;;
46845;SDS011;33947;46.804;134.252;2023-12-07T17:11:06;45.83;;;12.40;;
46845;SDS011;33947;46.804;134.252;2023-12-07T17:14:11;32.42;;;12.73;;
46845;SDS011;33947;46.804;134.252;2023-12-07T17:17:16;33.17;;;11.48;;
46845;SDS011;33947;46.804;134.252;2023-12-07T17:20:21;32.53;;;12.68;;
46845;SDS011;33947;46.804;134.252;2023-12-07T17:26:30;24.85;;;13.20;;
46845;SDS011;33947;46.804;134.252;2023-12-07T17:29:43;27.02;;;11.85;;
46845;SDS011;33947;46.804;134.252;2023-12-07T17:32:49;39.22;;;13.57;;
46845;SDS011;33947;46.804;134.252;2023-12-07T17:38:58;15.60;;;8.95;;
46845;SDS011;33947;46.804;134.252;2023-12-07T17:42:05;29.85;;;12.07;;
46845;SDS011;33947;46.804;134.252;2023-12-07T17:45:10;27.20;;;11.85;;
46845;SDS011;33947;46.804;134.252;2023-12-07T17:51:20;22.05;;;9.35;;
46845;SDS011;33947;46.804;134.252;2023-12-07T17:54:29;25.23;;;9.80;;
46845;SDS011;33947;46.804;134.252;2023-12-07T17:57:33;23.20;;;9.02;;
46845;SDS011;33947;46.804;134.252;2023-12-07T18:00:41;14.82;;;8.00;;
46845;SDS011;33947;46.804;134.252;2023-12-07T18:03:49;16.98;;;7.40;;
46845;SDS011;33947;46.804;134.252;2023-12-07T18:06:54;22.63;;;7.22;;
46845;SDS011;33947;46.804;134.252;2023-12-07T18:10:00;20.77;;;8.90;;
46845;SDS011;33947;46.804;134.252;2023-12-07T18:13:07;66.43;;;18.75;;
46845;SDS011;33947;46.804;134.252;2023-12-07T18:16:22;68.70;;;20.27;;
46845;SDS011;33947;46.804;134.252;2023-12-07T18:19:29;19.70;;;8.75;;
46845;SDS011;33947;46.804;134.252;2023-12-07T18:22:34;91.85;;;26.02;;
46845;SDS011;33947;46.804;134.252;2023-12-07T18:25:40;40.63;;;14.23;;
46845;SDS011;33947;46.804;134.252;2023-12-07T18:28:50;33.67;;;13.48;;
46845;SDS011;33947;46.804;134.252;2023-12-07T18:31:57;40.33;;;16.50;;
46845;SDS011;33947;46.804;134.252;2023-12-07T18:35:02;53.17;;;19.23;;
46845;SDS011;33947;46.804;134.252;2023-12-07T18:38:08;47.90;;;13.38;;
46845;SDS011;33947;46.804;134.252;2023-12-07T18:41:13;37.58;;;14.93;;
46845;SDS011;33947;46.804;134.252;2023-12-07T18:44:20;35.25;;;14.13;;
46845;SDS011;33947;46.804;134.252;2023-12-07T18:47:26;41.10;;;17.10;;
46845;SDS011;33947;46.804;134.252;2023-12-07T18:50:34;47.42;;;18.80;;
46845;SDS011;33947;46.804;134.252;2023-12-07T18:56:44;30.00;;;16.23;;
46845;SDS011;33947;46.804;134.252;2023-12-07T18:59:49;57.97;;;23.73;;
46845;SDS011;33947;46.804;134.252;2023-12-07T19:02:56;42.55;;;17.67;;
46845;SDS011;33947;46.804;134.252;2023-12-07T19:09:07;50.58;;;20.52;;
46845;SDS011;33947;46.804;134.252;2023-12-07T19:12:12;34.20;;;15.10;;
46845;SDS011;33947;46.804;134.252;2023-12-07T19:15:19;30.15;;;13.80;;
46845;SDS011;33947;46.804;134.252;2023-12-07T19:18:25;31.40;;;12.70;;
46845;SDS011;33947;46.804;134.252;2023-12-07T19:21:37;49.22;;;16.10;;
46845;SDS011;33947;46.804;134.252;2023-12-07T19:24:45;36.35;;;12.80;;
46845;SDS011;33947;46.804;134.252;2023-12-07T19:27:49;24.92;;;11.75;;
46845;SDS011;33947;46.804;134.252;2023-12-07T19:30:55;14.80;;;7.93;;
46845;SDS011;33947;46.804;134.252;2023-12-07T19:34:20;14.98;;;7.03;;
46845;SDS011;33947;46.804;134.252;2023-12-07T19:37:26;12.60;;;5.88;;
46845;SDS011;33947;46.804;134.252;2023-12-07T19:40:33;10.80;;;6.25;;
46845;SDS011;33947;46.804;134.252;2023-12-07T19:43:37;11.90;;;6.18;;
46845;SDS011;33947;46.804;134.252;2023-12-07T19:46:42;15.57;;;5.63;;
46845;SDS011;33947;46.804;134.252;2023-12-07T19:49:47;11.18;;;5.53;;
46845;SDS011;33947;46.804;134.252;2023-12-07T19:52:52;18.02;;;5.43;;
46845;SDS011;33947;46.804;134.252;2023-12-07T19:55:57;16.38;;;4.43;;
46845;SDS011;33947;46.804;134.252;2023-12-07T19:59:02;10.30;;;4.38;;
46845;SDS011;33947;46.804;134.252;2023-12-07T20:02:07;9.68;;;4.38;;
46845;SDS011;33947;46.804;134.252;2023-12-07T20:05:13;10.82;;;4.45;;
46845;SDS011;33947;46.804;134.252;2023-12-07T20:08:18;8.13;;;3.80;;
46845;SDS011;33947;46.804;134.252;2023-12-07T20:11:23;13.38;;;4.68;;
46845;SDS011;33947;46.804;134.252;2023-12-07T20:17:32;5.63;;;2.60;;
46845;SDS011;33947;46.804;134.252;2023-12-07T20:20:37;6.32;;;4.20;;
46845;SDS011;33947;46.804;134.252;2023-12-07T20:27:20;11.40;;;4.63;;
46845;SDS011;33947;46.804;134.252;2023-12-07T20:30:28;9.50;;;3.45;;
46845;SDS011;33947;46.804;134.252;2023-12-07T20:36:37;25.63;;;12.52;;
46845;SDS011;33947;46.804;134.252;2023-12-07T20:39:48;50.10;;;15.07;;
46845;SDS011;33947;46.804;134.252;2023-12-07T20:42:53;21.63;;;7.93;;
46845;SDS011;33947;46.804;134.252;2023-12-07T20:45:58;10.13;;;4.35;;
46845;SDS011;33947;46.804;134.252;2023-12-07T20:49:05;13.25;;;4.60;;
46845;SDS011;33947;46.804;134.252;2023-12-07T20:52:15;14.80;;;6.53;;
46845;SDS011;33947;46.804;134.252;2023-12-07T20:55:23;6.95;;;3.67;;
46845;SDS011;33947;46.804;134.252;2023-12-07T20:58:32;11.50;;;5.10;;
46845;SDS011;33947;46.804;134.252;2023-12-07T21:01:37;11.75;;;4.80;;
46845;SDS011;33947;46.804;134.252;2023-12-07T21:04:43;14.60;;;7.03;;
46845;SDS011;33947;46.804;134.252;2023-12-07T21:07:48;75.72;;;27.05;;
46845;SDS011;33947;46.804;134.252;2023-12-07T21:10:53;14.35;;;6.43;;
46845;SDS011;33947;46.804;134.252;2023-12-07T21:14:00;12.50;;;6.63;;
46845;SDS011;33947;46.804;134.252;2023-12-07T21:17:05;29.15;;;12.15;;
46845;SDS011;33947;46.804;134.252;2023-12-07T21:20:10;34.35;;;14.25;;
46845;SDS011;33947;46.804;134.252;2023-12-07T21:23:15;22.67;;;14.25;;
46845;SDS011;33947;46.804;134.252;2023-12-07T21:26:20;19.80;;;10.18;;
46845;SDS011;33947;46.804;134.252;2023-12-07T21:29:28;10.48;;;6.85;;
46845;SDS011;33947;46.804;134.252;2023-12-07T21:32:33;10.02;;;5.75;;
46845;SDS011;33947;46.804;134.252;2023-12-07T21:35:42;15.13;;;6.03;;
46845;SDS011;33947;46.804;134.252;2023-12-07T21:41:54;10.90;;;4.72;;
46845;SDS011;33947;46.804;134.252;2023-12-07T21:45:09;7.25;;;3.85;;
46845;SDS011;33947;46.804;134.252;2023-12-07T21:51:19;3.25;;;2.72;;
46845;SDS011;33947;46.804;134.252;2023-12-07T21:54:24;355.25;;;110.28;;
46845;SDS011;33947;46.804;134.252;2023-12-07T21:57:33;12.02;;;4.97;;
46845;SDS011;33947;46.804;134.252;2023-12-07T22:00:41;10.13;;;5.03;;
46845;SDS011;33947;46.804;134.252;2023-12-07T22:03:50;18.90;;;8.25;;
46845;SDS011;33947;46.804;134.252;2023-12-07T22:06:58;8.77;;;4.00;;
46845;SDS011;33947;46.804;134.252;2023-12-07T22:10:03;12.63;;;6.32;;
46845;SDS011;33947;46.804;134.252;2023-12-07T22:13:26;28.67;;;12.60;;
46845;SDS011;33947;46.804;134.252;2023-12-07T22:17:10;30.08;;;13.77;;
46845;SDS011;33947;46.804;134.252;2023-12-07T22:21:37;84.57;;;30.92;;
46845;SDS011;33947;46.804;134.252;2023-12-07T22:24:41;50.85;;;19.35;;
46845;SDS011;33947;46.804;134.252;2023-12-07T22:27:57;21.48;;;12.57;;
46845;SDS011;33947;46.804;134.252;2023-12-07T22:31:04;12.57;;;7.13;;
46845;SDS011;33947;46.804;134.252;2023-12-07T22:34:14;21.42;;;8.65;;
46845;SDS011;33947;46.804;134.252;2023-12-07T22:37:21;17.63;;;7.95;;
46845;SDS011;33947;46.804;134.252;2023-12-07T22:40:52;20.02;;;10.13;;
46845;SDS011;33947;46.804;134.252;2023-12-07T22:44:03;14.52;;;7.65;;
46845;SDS011;33947;46.804;134.252;2023-12-07T22:47:10;13.35;;;7.95;;
46845;SDS011;33947;46.804;134.252;2023-12-07T22:50:18;22.40;;;11.00;;